sensor_id;sensor_type;location;lat;lon;timestamp;pressure;altitude;pressure_sealevel;temperature;humidity
68525;BME280;55524;51.380;13.372;2023-06-14T00:01:08;100573.66;;;13.41;76.60
68525;BME280;55524;51.380;13.372;2023-06-14T00:03:35;100579.44;;;13.30;77.76
68525;BME280;55524;51.380;13.372;2023-06-14T00:06:01;100570.41;;;13.34;77.55
68525;BME280;55524;51.380;13.372;2023-06-14T00:08:28;100574.00;;;13.33;78.26
68525;BME280;55524;51.380;13.372;2023-06-14T00:10:54;100572.66;;;13.24;77.82
68525;BME280;55524;51.380;13.372;2023-06-14T00:13:20;100565.63;;;13.23;77.95
68525;BME280;55524;51.380;13.372;2023-06-14T00:15:47;100572.97;;;13.17;78.58
68525;BME280;55524;51.380;13.372;2023-06-14T00:18:13;100574.13;;;13.11;79.29
68525;BME280;55524;51.380;13.372;2023-06-14T00:20:41;100568.00;;;13.09;79.03
68525;BME280;55524;51.380;13.372;2023-06-14T00:23:08;100572.72;;;13.02;80.08
68525;BME280;55524;51.380;13.372;2023-06-14T00:25:35;100573.03;;;12.96;79.74
68525;BME280;55524;51.380;13.372;2023-06-14T00:28:01;100583.88;;;12.90;80.10
68525;BME280;55524;51.380;13.372;2023-06-14T00:30:28;100569.22;;;12.83;80.65
68525;BME280;55524;51.380;13.372;2023-06-14T00:32:56;100569.34;;;12.80;81.95
68525;BME280;55524;51.380;13.372;2023-06-14T00:35:23;100561.50;;;12.77;80.90
68525;BME280;55524;51.380;13.372;2023-06-14T00:37:49;100575.72;;;12.76;81.45
68525;BME280;55524;51.380;13.372;2023-06-14T00:40:16;100568.09;;;12.68;82.36
68525;BME280;55524;51.380;13.372;2023-06-14T00:42:42;100563.78;;;12.66;82.55
68525;BME280;55524;51.380;13.372;2023-06-14T00:45:09;100569.03;;;12.67;82.52
68525;BME280;55524;51.380;13.372;2023-06-14T00:47:36;100564.59;;;12.68;83.00
68525;BME280;55524;51.380;13.372;2023-06-14T00:50:06;100566.22;;;12.70;82.45
68525;BME280;55524;51.380;13.372;2023-06-14T00:52:32;100562.06;;;12.65;82.48
68525;BME280;55524;51.380;13.372;2023-06-14T00:54:59;100568.41;;;12.61;82.88
68525;BME280;55524;51.380;13.372;2023-06-14T00:57:25;100558.41;;;12.67;83.08
68525;BME280;55524;51.380;13.372;2023-06-14T00:59:52;100556.75;;;12.65;83.65
68525;BME280;55524;51.380;13.372;2023-06-14T01:02:18;100558.75;;;12.60;nan
68525;BME280;55524;51.380;13.372;2023-06-14T01:04:49;100554.50;;;12.55;84.07
68525;BME280;55524;51.380;13.372;2023-06-14T01:13:01;100554.66;;;12.52;84.08
68525;BME280;55524;51.380;13.372;2023-06-14T01:15:18;100555.91;;;12.44;84.65
68525;BME280;55524;51.380;13.372;2023-06-14T01:17:48;100553.19;;;12.45;84.83
68525;BME280;55524;51.380;13.372;2023-06-14T01:20:19;100552.97;;;12.50;84.09
68525;BME280;55524;51.380;13.372;2023-06-14T01:22:55;100561.34;;;12.41;84.56
68525;BME280;55524;51.380;13.372;2023-06-14T01:25:22;100557.88;;;12.39;85.21
68525;BME280;55524;51.380;13.372;2023-06-14T01:28:09;100553.59;;;12.36;85.45
68525;BME280;55524;51.380;13.372;2023-06-14T01:30:39;100566.22;;;12.29;85.69
68525;BME280;55524;51.380;13.372;2023-06-14T01:33:08;100565.50;;;12.26;85.87
68525;BME280;55524;51.380;13.372;2023-06-14T01:35:36;100564.19;;;12.16;86.77
68525;BME280;55524;51.380;13.372;2023-06-14T01:38:03;100569.63;;;12.11;86.83
68525;BME280;55524;51.380;13.372;2023-06-14T01:40:30;100567.13;;;12.08;87.13
68525;BME280;55524;51.380;13.372;2023-06-14T01:42:58;100572.38;;;12.10;87.83
68525;BME280;55524;51.380;13.372;2023-06-14T01:45:25;100569.59;;;12.13;87.40
68525;BME280;55524;51.380;13.372;2023-06-14T01:47:53;100569.94;;;12.03;87.68
68525;BME280;55524;51.380;13.372;2023-06-14T01:50:20;100559.34;;;12.03;88.28
68525;BME280;55524;51.380;13.372;2023-06-14T01:52:47;100561.47;;;11.95;88.40
68525;BME280;55524;51.380;13.372;2023-06-14T01:55:13;100556.25;;;11.94;88.29
68525;BME280;55524;51.380;13.372;2023-06-14T01:57:39;100555.63;;;11.87;88.35
68525;BME280;55524;51.380;13.372;2023-06-14T02:00:07;100566.09;;;11.90;88.79
68525;BME280;55524;51.380;13.372;2023-06-14T02:02:36;100561.78;;;11.88;88.50
68525;BME280;55524;51.380;13.372;2023-06-14T02:05:03;100561.63;;;11.92;88.54
68525;BME280;55524;51.380;13.372;2023-06-14T02:07:30;100561.63;;;11.92;89.22
68525;BME280;55524;51.380;13.372;2023-06-14T02:09:56;100566.09;;;11.90;89.06
68525;BME280;55524;51.380;13.372;2023-06-14T02:12:22;100570.47;;;11.91;89.09
68525;BME280;55524;51.380;13.372;2023-06-14T02:14:48;100566.44;;;11.81;88.95
68525;BME280;55524;51.380;13.372;2023-06-14T02:17:15;100573.78;;;11.74;89.37
68525;BME280;55524;51.380;13.372;2023-06-14T02:19:42;100575.66;;;11.71;89.76
68525;BME280;55524;51.380;13.372;2023-06-14T02:22:08;100571.63;;;11.62;89.46
68525;BME280;55524;51.380;13.372;2023-06-14T02:24:34;100585.06;;;11.56;90.57
68525;BME280;55524;51.380;13.372;2023-06-14T02:27:02;100579.84;;;11.54;91.06
68525;BME280;55524;51.380;13.372;2023-06-14T02:29:29;100583.53;;;11.50;91.61
68525;BME280;55524;51.380;13.372;2023-06-14T02:31:55;100583.78;;;11.44;92.14
68525;BME280;55524;51.380;13.372;2023-06-14T02:34:22;100584.19;;;11.33;91.02
68525;BME280;55524;51.380;13.372;2023-06-14T02:36:48;100582.81;;;11.23;91.08
68525;BME280;55524;51.380;13.372;2023-06-14T02:39:15;100586.66;;;11.15;91.33
68525;BME280;55524;51.380;13.372;2023-06-14T02:41:42;100592.94;;;11.12;92.22
68525;BME280;55524;51.380;13.372;2023-06-14T02:44:09;100594.03;;;11.06;92.34
68525;BME280;55524;51.380;13.372;2023-06-14T02:46:37;100592.69;;;10.95;93.44
68525;BME280;55524;51.380;13.372;2023-06-14T02:49:04;100595.91;;;11.03;92.69
68525;BME280;55524;51.380;13.372;2023-06-14T02:51:30;100593.06;;;10.84;91.94
68525;BME280;55524;51.380;13.372;2023-06-14T02:53:56;100599.63;;;10.74;92.92
68525;BME280;55524;51.380;13.372;2023-06-14T02:56:22;100602.38;;;10.46;94.48
68525;BME280;55524;51.380;13.372;2023-06-14T02:58:49;100612.13;;;10.44;95.20
68525;BME280;55524;51.380;13.372;2023-06-14T03:01:16;100603.44;;;10.40;95.92
68525;BME280;55524;51.380;13.372;2023-06-14T03:03:44;100606.16;;;10.37;96.61
68525;BME280;55524;51.380;13.372;2023-06-14T03:06:10;100604.53;;;10.33;97.81
68525;BME280;55524;51.380;13.372;2023-06-14T03:08:40;100597.69;;;10.27;97.78
68525;BME280;55524;51.380;13.372;2023-06-14T03:11:07;100596.91;;;10.24;96.45
68525;BME280;55524;51.380;13.372;2023-06-14T03:13:37;100603.38;;;10.15;95.66
68525;BME280;55524;51.380;13.372;2023-06-14T03:16:04;100613.06;;;10.15;96.00
68525;BME280;55524;51.380;13.372;2023-06-14T03:18:31;100608.06;;;10.05;96.09
68525;BME280;55524;51.380;13.372;2023-06-14T03:21:02;100614.34;;;10.03;96.99
68525;BME280;55524;51.380;13.372;2023-06-14T03:23:28;100609.91;;;10.03;97.06
68525;BME280;55524;51.380;13.372;2023-06-14T03:25:54;100617.63;;;10.09;97.58
68525;BME280;55524;51.380;13.372;2023-06-14T03:28:22;100621.41;;;10.02;99.62
68525;BME280;55524;51.380;13.372;2023-06-14T03:30:48;100625.59;;;10.08;99.27
68525;BME280;55524;51.380;13.372;2023-06-14T03:33:14;100625.44;;;10.13;99.50
68525;BME280;55524;51.380;13.372;2023-06-14T03:35:41;100628.81;;;10.18;99.19
68525;BME280;55524;51.380;13.372;2023-06-14T03:38:08;100631.47;;;10.18;98.75
68525;BME280;55524;51.380;13.372;2023-06-14T03:40:34;100628.75;;;10.19;99.38
68525;BME280;55524;51.380;13.372;2023-06-14T03:43:01;100628.59;;;10.24;99.55
68525;BME280;55524;51.380;13.372;2023-06-14T03:45:27;100631.19;;;10.27;99.10
68525;BME280;55524;51.380;13.372;2023-06-14T03:47:54;100635.34;;;10.34;98.83
68525;BME280;55524;51.380;13.372;2023-06-14T03:50:21;100640.50;;;10.37;100.00
68525;BME280;55524;51.380;13.372;2023-06-14T03:52:48;100644.78;;;10.41;99.45
68525;BME280;55524;51.380;13.372;2023-06-14T03:55:16;100643.81;;;10.44;99.30
68525;BME280;55524;51.380;13.372;2023-06-14T03:57:43;100648.94;;;10.48;99.47
68525;BME280;55524;51.380;13.372;2023-06-14T04:00:10;100645.28;;;10.52;99.59
68525;BME280;55524;51.380;13.372;2023-06-14T04:02:37;100650.28;;;10.62;99.04
68525;BME280;55524;51.380;13.372;2023-06-14T04:05:04;100644.59;;;10.72;99.02
68525;BME280;55524;51.380;13.372;2023-06-14T04:07:34;100651.56;;;10.75;99.06
68525;BME280;55524;51.380;13.372;2023-06-14T04:10:07;100652.34;;;10.78;99.02
68525;BME280;55524;51.380;13.372;2023-06-14T04:12:34;100653.78;;;10.87;99.19
68525;BME280;55524;51.380;13.372;2023-06-14T04:15:00;100665.88;;;10.94;99.19
68525;BME280;55524;51.380;13.372;2023-06-14T04:17:27;100670.22;;;10.97;99.39
68525;BME280;55524;51.380;13.372;2023-06-14T04:19:53;100670.78;;;11.05;99.08
68525;BME280;55524;51.380;13.372;2023-06-14T04:22:19;100675.84;;;11.11;98.43
68525;BME280;55524;51.380;13.372;2023-06-14T04:24:45;100674.06;;;11.12;99.28
68525;BME280;55524;51.380;13.372;2023-06-14T04:27:12;100674.78;;;11.17;99.72
68525;BME280;55524;51.380;13.372;2023-06-14T04:29:40;100672.81;;;11.22;99.51
68525;BME280;55524;51.380;13.372;2023-06-14T04:32:09;100682.03;;;11.35;98.79
68525;BME280;55524;51.380;13.372;2023-06-14T04:34:36;100678.63;;;11.31;98.38
68525;BME280;55524;51.380;13.372;2023-06-14T04:37:03;100680.25;;;11.36;98.48
68525;BME280;55524;51.380;13.372;2023-06-14T04:39:30;100680.03;;;11.42;98.51
68525;BME280;55524;51.380;13.372;2023-06-14T04:41:56;100674.09;;;11.58;98.15
68525;BME280;55524;51.380;13.372;2023-06-14T04:44:24;100676.38;;;11.68;95.76
68525;BME280;55524;51.380;13.372;2023-06-14T04:46:58;100674.66;;;11.67;97.06
68525;BME280;55524;51.380;13.372;2023-06-14T04:49:25;100679.63;;;11.76;97.08
68525;BME280;55524;51.380;13.372;2023-06-14T04:51:53;100680.66;;;11.95;95.77
68525;BME280;55524;51.380;13.372;2023-06-14T04:54:27;100680.53;;;11.98;96.49
68525;BME280;55524;51.380;13.372;2023-06-14T04:56:54;100682.69;;;12.11;95.32
68525;BME280;55524;51.380;13.372;2023-06-14T04:59:21;100681.34;;;12.22;93.85
68525;BME280;55524;51.380;13.372;2023-06-14T05:01:51;100684.50;;;12.32;93.80
68525;BME280;55524;51.380;13.372;2023-06-14T05:04:19;100683.19;;;12.42;92.26
68525;BME280;55524;51.380;13.372;2023-06-14T05:06:46;100689.66;;;12.57;92.26
68525;BME280;55524;51.380;13.372;2023-06-14T05:09:14;100684.50;;;12.74;90.67
68525;BME280;55524;51.380;13.372;2023-06-14T05:11:42;100688.03;;;12.75;90.33
68525;BME280;55524;51.380;13.372;2023-06-14T05:14:13;100683.25;;;12.41;90.85
68525;BME280;55524;51.380;13.372;2023-06-14T05:16:40;100686.59;;;12.66;90.12
68525;BME280;55524;51.380;13.372;2023-06-14T05:19:07;100693.03;;;12.61;89.31
68525;BME280;55524;51.380;13.372;2023-06-14T05:21:33;100691.91;;;12.87;89.26
68525;BME280;55524;51.380;13.372;2023-06-14T05:24:01;100684.03;;;12.85;88.09
68525;BME280;55524;51.380;13.372;2023-06-14T05:26:27;100675.53;;;13.18;87.98
68525;BME280;55524;51.380;13.372;2023-06-14T05:28:57;100671.28;;;13.34;86.42
68525;BME280;55524;51.380;13.372;2023-06-14T05:31:24;100675.63;;;13.56;86.23
68525;BME280;55524;51.380;13.372;2023-06-14T05:33:52;100676.41;;;13.58;84.98
68525;BME280;55524;51.380;13.372;2023-06-14T05:36:19;100678.50;;;13.70;85.63
68525;BME280;55524;51.380;13.372;2023-06-14T05:38:47;100667.97;;;13.68;84.58
68525;BME280;55524;51.380;13.372;2023-06-14T05:41:14;100660.28;;;13.81;83.92
68525;BME280;55524;51.380;13.372;2023-06-14T05:43:40;100664.31;;;13.71;83.34
68525;BME280;55524;51.380;13.372;2023-06-14T05:46:06;100665.88;;;13.94;82.64
68525;BME280;55524;51.380;13.372;2023-06-14T05:48:32;100668.47;;;13.95;82.22
68525;BME280;55524;51.380;13.372;2023-06-14T05:50:59;100667.50;;;13.96;81.46
68525;BME280;55524;51.380;13.372;2023-06-14T05:53:26;100659.41;;;13.99;80.92
68525;BME280;55524;51.380;13.372;2023-06-14T05:55:52;100661.91;;;14.02;81.79
68525;BME280;55524;51.380;13.372;2023-06-14T05:58:21;100667.34;;;14.18;81.88
68525;BME280;55524;51.380;13.372;2023-06-14T06:00:47;100663.16;;;14.32;80.96
68525;BME280;55524;51.380;13.372;2023-06-14T06:03:14;100656.88;;;14.33;80.15
68525;BME280;55524;51.380;13.372;2023-06-14T06:05:40;100661.94;;;14.56;79.72
68525;BME280;55524;51.380;13.372;2023-06-14T06:08:06;100658.28;;;14.59;78.58
68525;BME280;55524;51.380;13.372;2023-06-14T06:10:33;100661.31;;;14.68;78.10
68525;BME280;55524;51.380;13.372;2023-06-14T06:12:59;100655.81;;;14.73;77.22
68525;BME280;55524;51.380;13.372;2023-06-14T06:15:25;100656.72;;;14.89;77.24
68525;BME280;55524;51.380;13.372;2023-06-14T06:17:52;100650.38;;;14.92;76.68
68525;BME280;55524;51.380;13.372;2023-06-14T06:20:18;100645.34;;;15.03;76.16
68525;BME280;55524;51.380;13.372;2023-06-14T06:22:44;100655.03;;;15.04;75.96
68525;BME280;55524;51.380;13.372;2023-06-14T06:25:11;100641.91;;;15.01;74.88
68525;BME280;55524;51.380;13.372;2023-06-14T06:27:37;100638.34;;;15.18;74.51
68525;BME280;55524;51.380;13.372;2023-06-14T06:30:04;100646.63;;;15.29;74.55
68525;BME280;55524;51.380;13.372;2023-06-14T06:32:31;100647.53;;;15.45;74.05
68525;BME280;55524;51.380;13.372;2023-06-14T06:34:57;100642.91;;;15.49;72.83
68525;BME280;55524;51.380;13.372;2023-06-14T06:37:25;100635.34;;;15.57;71.80
68525;BME280;55524;51.380;13.372;2023-06-14T06:39:52;100633.41;;;15.77;71.97
68525;BME280;55524;51.380;13.372;2023-06-14T06:42:18;100630.22;;;15.86;70.93
68525;BME280;55524;51.380;13.372;2023-06-14T06:44:44;100620.56;;;15.99;70.21
68525;BME280;55524;51.380;13.372;2023-06-14T06:47:10;100622.28;;;16.16;70.11
68525;BME280;55524;51.380;13.372;2023-06-14T06:49:37;100624.19;;;16.14;70.73
68525;BME280;55524;51.380;13.372;2023-06-14T06:52:05;100625.00;;;16.30;70.10
68525;BME280;55524;51.380;13.372;2023-06-14T06:54:32;100619.31;;;16.36;69.02
68525;BME280;55524;51.380;13.372;2023-06-14T06:57:00;100620.25;;;16.51;69.03
68525;BME280;55524;51.380;13.372;2023-06-14T06:59:27;100608.31;;;16.57;67.49
68525;BME280;55524;51.380;13.372;2023-06-14T07:01:54;100611.88;;;16.87;67.65
68525;BME280;55524;51.380;13.372;2023-06-14T07:04:20;100608.34;;;17.01;66.17
68525;BME280;55524;51.380;13.372;2023-06-14T07:06:47;100599.66;;;16.98;65.87
68525;BME280;55524;51.380;13.372;2023-06-14T07:09:13;100602.03;;;17.02;65.60
68525;BME280;55524;51.380;13.372;2023-06-14T07:11:42;100598.50;;;17.02;64.81
68525;BME280;55524;51.380;13.372;2023-06-14T07:14:08;100599.75;;;17.25;64.31
68525;BME280;55524;51.380;13.372;2023-06-14T07:16:35;100596.91;;;16.99;63.50
68525;BME280;55524;51.380;13.372;2023-06-14T07:19:03;100605.75;;;17.14;64.14
68525;BME280;55524;51.380;13.372;2023-06-14T07:21:30;100603.53;;;17.49;63.35
68525;BME280;55524;51.380;13.372;2023-06-14T07:23:56;100602.97;;;17.58;62.81
68525;BME280;55524;51.380;13.372;2023-06-14T07:26:23;100586.16;;;17.70;62.13
68525;BME280;55524;51.380;13.372;2023-06-14T07:28:49;100574.72;;;17.96;60.57
68525;BME280;55524;51.380;13.372;2023-06-14T07:31:16;100572.28;;;18.05;60.08
68525;BME280;55524;51.380;13.372;2023-06-14T07:33:45;100571.69;;;17.73;59.86
68525;BME280;55524;51.380;13.372;2023-06-14T07:36:11;100572.56;;;18.15;59.81
68525;BME280;55524;51.380;13.372;2023-06-14T07:38:38;100559.81;;;18.06;58.45
68525;BME280;55524;51.380;13.372;2023-06-14T07:41:06;100564.38;;;18.04;58.38
68525;BME280;55524;51.380;13.372;2023-06-14T07:43:32;100560.31;;;18.51;58.52
68525;BME280;55524;51.380;13.372;2023-06-14T07:45:59;100558.00;;;18.84;57.83
68525;BME280;55524;51.380;13.372;2023-06-14T07:48:26;100544.63;;;18.97;57.06
68525;BME280;55524;51.380;13.372;2023-06-14T07:50:52;100545.03;;;19.16;56.25
68525;BME280;55524;51.380;13.372;2023-06-14T07:53:19;100532.44;;;19.30;55.62
68525;BME280;55524;51.380;13.372;2023-06-14T07:55:45;100528.66;;;19.45;55.09
68525;BME280;55524;51.380;13.372;2023-06-14T07:58:13;100536.19;;;19.77;55.06
68525;BME280;55524;51.380;13.372;2023-06-14T08:00:39;100524.94;;;19.96;53.53
68525;BME280;55524;51.380;13.372;2023-06-14T08:03:06;100516.38;;;19.30;53.31
68525;BME280;55524;51.380;13.372;2023-06-14T08:05:32;100513.97;;;19.75;52.54
68525;BME280;55524;51.380;13.372;2023-06-14T08:07:59;100507.66;;;20.11;51.01
68525;BME280;55524;51.380;13.372;2023-06-14T08:10:25;100510.75;;;20.53;51.62
68525;BME280;55524;51.380;13.372;2023-06-14T08:12:51;100496.75;;;20.36;49.63
68525;BME280;55524;51.380;13.372;2023-06-14T08:15:18;100496.59;;;19.92;50.64
68525;BME280;55524;51.380;13.372;2023-06-14T08:17:45;100527.50;;;19.73;51.65
68525;BME280;55524;51.380;13.372;2023-06-14T08:20:11;100522.72;;;19.65;50.83
68525;BME280;55524;51.380;13.372;2023-06-14T08:22:38;100531.22;;;19.47;52.13
68525;BME280;55524;51.380;13.372;2023-06-14T08:25:05;100525.19;;;19.69;50.71
68525;BME280;55524;51.380;13.372;2023-06-14T08:27:33;100520.41;;;19.35;50.49
68525;BME280;55524;51.380;13.372;2023-06-14T08:29:59;100528.94;;;19.53;50.39
68525;BME280;55524;51.380;13.372;2023-06-14T08:32:26;100529.28;;;19.61;50.57
68525;BME280;55524;51.380;13.372;2023-06-14T08:34:52;100535.72;;;19.83;51.04
68525;BME280;55524;51.380;13.372;2023-06-14T08:37:19;100525.47;;;19.77;50.39
68525;BME280;55524;51.380;13.372;2023-06-14T08:39:46;100526.91;;;19.57;50.70
68525;BME280;55524;51.380;13.372;2023-06-14T08:42:13;100519.28;;;19.51;50.28
68525;BME280;55524;51.380;13.372;2023-06-14T08:44:40;100533.47;;;19.53;50.92
68525;BME280;55524;51.380;13.372;2023-06-14T08:47:08;100520.69;;;19.56;50.23
68525;BME280;55524;51.380;13.372;2023-06-14T08:49:39;100524.00;;;19.60;50.52
68525;BME280;55524;51.380;13.372;2023-06-14T08:52:09;100521.63;;;19.68;49.76
68525;BME280;55524;51.380;13.372;2023-06-14T08:54:38;100524.81;;;19.73;50.05
68525;BME280;55524;51.380;13.372;2023-06-14T08:57:11;100523.91;;;19.61;50.60
68525;BME280;55524;51.380;13.372;2023-06-14T08:59:46;100529.81;;;19.54;50.72
68525;BME280;55524;51.380;13.372;2023-06-14T09:02:15;100524.69;;;19.38;50.48
68525;BME280;55524;51.380;13.372;2023-06-14T09:04:44;100517.19;;;19.80;50.22
68525;BME280;55524;51.380;13.372;2023-06-14T09:07:11;100512.31;;;19.85;49.15
68525;BME280;55524;51.380;13.372;2023-06-14T09:09:42;100508.09;;;19.94;48.18
68525;BME280;55524;51.380;13.372;2023-06-14T09:12:10;100515.38;;;19.92;48.16
68525;BME280;55524;51.380;13.372;2023-06-14T09:14:37;100528.59;;;19.71;49.66
68525;BME280;55524;51.380;13.372;2023-06-14T09:17:06;100525.25;;;19.91;48.50
68525;BME280;55524;51.380;13.372;2023-06-14T09:19:33;100534.41;;;19.88;49.47
68525;BME280;55524;51.380;13.372;2023-06-14T09:22:00;100523.50;;;20.03;48.50
68525;BME280;55524;51.380;13.372;2023-06-14T09:24:26;100517.81;;;19.47;47.67
68525;BME280;55524;51.380;13.372;2023-06-14T09:26:53;100508.06;;;19.46;47.99
68525;BME280;55524;51.380;13.372;2023-06-14T09:29:19;100537.84;;;19.04;50.34
68525;BME280;55524;51.380;13.372;2023-06-14T09:31:48;100532.66;;;19.27;49.90
68525;BME280;55524;51.380;13.372;2023-06-14T09:34:16;100530.00;;;19.87;49.86
68525;BME280;55524;51.380;13.372;2023-06-14T09:36:45;100529.22;;;19.74;49.46
68525;BME280;55524;51.380;13.372;2023-06-14T09:39:17;100528.56;;;20.65;48.91
68525;BME280;55524;51.380;13.372;2023-06-14T09:41:44;100513.19;;;20.56;47.63
68525;BME280;55524;51.380;13.372;2023-06-14T09:44:11;100519.31;;;20.69;48.00
68525;BME280;55524;51.380;13.372;2023-06-14T09:46:38;100513.09;;;20.91;48.09
68525;BME280;55524;51.380;13.372;2023-06-14T09:49:05;100519.88;;;20.15;49.00
68525;BME280;55524;51.380;13.372;2023-06-14T09:51:32;100535.41;;;19.99;49.99
68525;BME280;55524;51.380;13.372;2023-06-14T09:54:03;100516.63;;;20.80;48.80
68525;BME280;55524;51.380;13.372;2023-06-14T09:56:38;100540.09;;;21.01;51.01
68525;BME280;55524;51.380;13.372;2023-06-14T09:59:08;100509.38;;;21.59;48.06
68525;BME280;55524;51.380;13.372;2023-06-14T10:01:40;100500.22;;;21.62;47.03
68525;BME280;55524;51.380;13.372;2023-06-14T10:04:07;100508.19;;;21.41;47.87
68525;BME280;55524;51.380;13.372;2023-06-14T10:06:37;100504.56;;;21.74;47.57
68525;BME280;55524;51.380;13.372;2023-06-14T10:09:08;100511.22;;;21.59;48.04
68525;BME280;55524;51.380;13.372;2023-06-14T10:11:36;100524.56;;;21.16;49.19
68525;BME280;55524;51.380;13.372;2023-06-14T10:14:04;100525.16;;;20.74;49.49
68525;BME280;55524;51.380;13.372;2023-06-14T10:24:58;100486.75;;;21.94;46.35
68525;BME280;55524;51.380;13.372;2023-06-14T10:27:25;100494.97;;;23.07;46.59
68525;BME280;55524;51.380;13.372;2023-06-14T10:32:24;100452.84;;;23.16;44.02
68525;BME280;55524;51.380;13.372;2023-06-14T10:34:55;100469.13;;;22.22;45.79
68525;BME280;55524;51.380;13.372;2023-06-14T10:37:22;100468.09;;;22.65;45.37
68525;BME280;55524;51.380;13.372;2023-06-14T10:39:51;100468.22;;;23.35;46.12
68525;BME280;55524;51.380;13.372;2023-06-14T10:42:17;100446.81;;;23.91;44.09
68525;BME280;55524;51.380;13.372;2023-06-14T10:44:55;100446.09;;;23.41;43.40
68525;BME280;55524;51.380;13.372;2023-06-14T10:47:26;100456.03;;;23.40;44.22
68525;BME280;55524;51.380;13.372;2023-06-14T10:52:27;100473.25;;;22.47;46.41
68525;BME280;55524;51.380;13.372;2023-06-14T10:55:07;100473.53;;;22.23;47.23
68525;BME280;55524;51.380;13.372;2023-06-14T10:57:39;100482.81;;;21.98;48.20
68525;BME280;55524;51.380;13.372;2023-06-14T11:00:07;100494.16;;;21.70;48.98
68525;BME280;55524;51.380;13.372;2023-06-14T11:10:43;100512.34;;;21.00;50.46
68525;BME280;55524;51.380;13.372;2023-06-14T11:13:09;100512.22;;;21.24;50.97
68525;BME280;55524;51.380;13.372;2023-06-14T11:15:37;100513.44;;;21.09;51.58
68525;BME280;55524;51.380;13.372;2023-06-14T11:18:05;100515.53;;;21.05;51.72
68525;BME280;55524;51.380;13.372;2023-06-14T11:20:33;100507.84;;;21.12;51.86
68525;BME280;55524;51.380;13.372;2023-06-14T11:23:00;100512.84;;;21.17;51.10
68525;BME280;55524;51.380;13.372;2023-06-14T11:25:27;100502.47;;;21.01;51.50
68525;BME280;55524;51.380;13.372;2023-06-14T11:27:57;100491.81;;;21.33;49.78
68525;BME280;55524;51.380;13.372;2023-06-14T11:30:24;100489.84;;;22.10;49.63
68525;BME280;55524;51.380;13.372;2023-06-14T11:32:52;100471.56;;;22.25;48.72
68525;BME280;55524;51.380;13.372;2023-06-14T11:35:22;100490.53;;;21.92;49.54
68525;BME280;55524;51.380;13.372;2023-06-14T11:37:52;100496.72;;;21.39;50.36
68525;BME280;55524;51.380;13.372;2023-06-14T11:40:18;100507.34;;;21.07;50.80
68525;BME280;55524;51.380;13.372;2023-06-14T11:42:45;100501.38;;;20.92;51.14
68525;BME280;55524;51.380;13.372;2023-06-14T11:45:12;100498.78;;;21.13;51.25
68525;BME280;55524;51.380;13.372;2023-06-14T11:47:39;100494.03;;;21.17;51.25
68525;BME280;55524;51.380;13.372;2023-06-14T11:50:07;100506.59;;;21.27;51.35
68525;BME280;55524;51.380;13.372;2023-06-14T11:52:37;100499.25;;;21.29;51.32
68525;BME280;55524;51.380;13.372;2023-06-14T11:55:04;100510.53;;;21.12;51.80
68525;BME280;55524;51.380;13.372;2023-06-14T11:57:34;100516.75;;;20.90;52.29
68525;BME280;55524;51.380;13.372;2023-06-14T12:00:08;100512.72;;;21.07;52.45
68525;BME280;55524;51.380;13.372;2023-06-14T12:02:38;100501.59;;;21.77;50.99
68525;BME280;55524;51.380;13.372;2023-06-14T12:05:07;100476.06;;;22.76;49.19
68525;BME280;55524;51.380;13.372;2023-06-14T12:07:37;100475.03;;;22.89;48.05
68525;BME280;55524;51.380;13.372;2023-06-14T12:10:09;100473.97;;;23.70;47.94
68525;BME280;55524;51.380;13.372;2023-06-14T12:12:40;100482.91;;;23.11;48.18
68525;BME280;55524;51.380;13.372;2023-06-14T12:15:08;100485.53;;;22.92;48.97
68525;BME280;55524;51.380;13.372;2023-06-14T12:17:38;100477.16;;;22.64;48.61
68525;BME280;55524;51.380;13.372;2023-06-14T12:20:12;100489.25;;;22.49;49.33
68525;BME280;55524;51.380;13.372;2023-06-14T12:22:52;100494.59;;;22.39;49.96
68525;BME280;55524;51.380;13.372;2023-06-14T12:25:35;100495.72;;;22.37;50.68
68525;BME280;55524;51.380;13.372;2023-06-14T12:28:09;100489.63;;;22.34;50.00
68525;BME280;55524;51.380;13.372;2023-06-14T12:30:37;100476.59;;;22.40;48.23
68525;BME280;55524;51.380;13.372;2023-06-14T12:33:04;100491.47;;;22.34;48.87
68525;BME280;55524;51.380;13.372;2023-06-14T12:35:31;100498.84;;;21.56;50.65
68525;BME280;55524;51.380;13.372;2023-06-14T12:37:57;100510.88;;;21.84;51.52
68525;BME280;55524;51.380;13.372;2023-06-14T12:40:24;100502.22;;;21.70;50.40
68525;BME280;55524;51.380;13.372;2023-06-14T12:42:50;100506.88;;;21.35;51.13
68525;BME280;55524;51.380;13.372;2023-06-14T12:45:16;100511.84;;;21.29;51.38
68525;BME280;55524;51.380;13.372;2023-06-14T12:47:43;100521.28;;;21.12;52.62
68525;BME280;55524;51.380;13.372;2023-06-14T12:50:09;100528.22;;;21.26;52.81
68525;BME280;55524;51.380;13.372;2023-06-14T12:52:35;100528.59;;;21.10;52.85
68525;BME280;55524;51.380;13.372;2023-06-14T12:55:05;100527.59;;;21.22;52.75
68525;BME280;55524;51.380;13.372;2023-06-14T12:57:33;100522.84;;;21.26;52.68
68525;BME280;55524;51.380;13.372;2023-06-14T13:00:02;100532.16;;;20.42;53.75
68525;BME280;55524;51.380;13.372;2023-06-14T13:02:29;100536.88;;;21.18;54.49
68525;BME280;55524;51.380;13.372;2023-06-14T13:04:55;100525.06;;;21.21;53.29
68525;BME280;55524;51.380;13.372;2023-06-14T13:07:23;100524.19;;;21.31;52.95
68525;BME280;55524;51.380;13.372;2023-06-14T13:09:49;100507.91;;;21.55;51.06